Time;durP1;ratioP1;P1;durP2;ratioP2;P2;SDS_P1;SDS_P2;PMS_P1;PMS_P2;Temp;Humidity;BMP_temperature;BMP_pressure;BME280_temperature;BME280_humidity;BME280_pressure;Samples;Min_cycle;Max_cycle;Signal;HPM_P1;HPM_P2
2021/10/21 00:02:15;;;;;;;2.90;2.60;;;;;;;12.89;96.53;94397.63;5056687;28;20184;-81
2021/10/21 00:04:40;;;;;;;2.93;2.63;;;;;;;12.85;97.06;94391.22;5055760;28;20269;-81
2021/10/21 00:07:05;;;;;;;2.97;2.33;;;;;;;12.88;97.16;94389.00;5080896;28;20200;-81
2021/10/21 00:09:31;;;;;;;2.80;2.50;;;;;;;12.84;97.10;94387.00;5069521;28;20265;-81
2021/10/21 00:11:56;;;;;;;2.83;2.50;;;;;;;12.81;97.53;94384.75;5077226;28;20705;-82
2021/10/21 00:14:22;;;;;;;3.80;3.10;;;;;;;12.77;97.79;94387.75;5076192;28;20184;-81
2021/10/21 00:16:47;;;;;;;3.87;2.77;;;;;;;12.77;97.71;94387.75;5060086;28;20177;-81
2021/10/21 00:19:12;;;;;;;3.20;2.90;;;;;;;12.72;98.27;94381.47;5076626;28;20275;-81
2021/10/21 00:21:38;;;;;;;3.77;2.90;;;;;;;12.72;98.41;94371.88;5076846;28;20246;-81
2021/10/21 00:24:03;;;;;;;3.20;2.90;;;;;;;12.79;98.10;94371.91;5059368;28;20634;-81
2021/10/21 00:26:29;;;;;;;3.67;2.57;;;;;;;12.86;97.91;94345.91;5076465;28;20208;-81
2021/10/21 00:28:54;;;;;;;3.17;2.87;;;;;;;12.83;97.83;94326.28;5076591;28;20665;-81
2021/10/21 00:31:19;;;;;;;5.10;3.30;;;;;;;12.83;97.45;94328.88;5076495;28;20176;-81
2021/10/21 00:33:45;;;;;;;5.00;4.07;;;;;;;12.95;97.56;94323.94;5066842;28;20189;-81
2021/10/21 00:36:10;;;;;;;6.30;5.67;;;;;;;12.87;97.59;94322.28;5074184;28;20191;-80
2021/10/21 00:38:36;;;;;;;6.90;6.10;;;;;;;12.85;98.09;94315.66;5037900;28;20622;-80
2021/10/21 00:41:01;;;;;;;7.53;6.57;;;;;;;12.80;98.56;94297.16;5039560;28;20182;-82
2021/10/21 00:43:34;;;;;;;8.10;7.10;;;;;;;12.84;98.08;94299.22;5055899;28;20235;-81
2021/10/21 00:46:03;;;;;;;8.33;7.17;;;;;;;12.74;98.68;94283.94;5039576;28;20291;-81
2021/10/21 00:48:28;;;;;;;7.73;7.00;;;;;;;12.77;98.28;94282.75;5056191;28;20193;-80
2021/10/21 00:50:54;;;;;;;9.27;8.27;;;;;;;12.87;98.02;94264.94;5064419;28;20199;-81
2021/10/21 00:53:19;;;;;;;9.87;8.33;;;;;;;12.79;98.49;94254.69;5039499;28;20185;-82
2021/10/21 00:55:44;;;;;;;9.87;7.87;;;;;;;12.76;98.14;94248.06;5038782;28;20177;-81
2021/10/21 00:58:10;;;;;;;9.03;8.17;;;;;;;12.75;98.39;94243.88;5056042;28;20205;-81
2021/10/21 01:00:35;;;;;;;9.33;8.20;;;;;;;12.80;98.71;94237.25;5039270;28;20177;-81
2021/10/21 01:03:01;;;;;;;8.80;7.90;;;;;;;12.72;98.74;94239.03;5039236;28;20613;-81
2021/10/21 01:05:26;;;;;;;9.53;8.17;;;;;;;12.74;98.74;94233.63;5055543;28;20243;-81
2021/10/21 01:07:53;;;;;;;8.93;8.03;;;;;;;12.77;98.70;94223.63;5055803;28;20241;-82
2021/10/21 01:10:18;;;;;;;8.50;7.20;;;;;;;12.76;98.96;94216.00;5039543;28;20195;-81
2021/10/21 01:12:43;;;;;;;8.90;7.13;;;;;;;12.69;98.91;94208.16;5039501;28;20268;-82
2021/10/21 01:15:21;;;;;;;8.67;7.47;;;;;;;12.72;99.29;94215.59;5038816;28;20236;-81
2021/10/21 01:17:47;;;;;;;7.80;7.00;;;;;;;12.76;99.08;94216.81;5073605;28;20189;-81
2021/10/21 01:20:13;;;;;;;6.73;5.83;;;;;;;12.77;99.25;94213.22;5054737;28;20601;-82
2021/10/21 01:22:39;;;;;;;6.80;6.00;;;;;;;12.80;99.07;94221.63;5039166;28;20191;-81
2021/10/21 01:25:05;;;;;;;6.43;5.70;;;;;;;12.86;98.83;94206.03;5038172;28;20256;-82
2021/10/21 01:27:30;;;;;;;5.27;4.57;;;;;;;12.98;98.20;94161.97;5055481;28;20304;-82
2021/10/21 01:29:55;;;;;;;5.33;4.83;;;;;;;13.01;98.20;94153.78;5055624;28;20272;-82
2021/10/21 01:32:25;;;;;;;6.67;5.47;;;;;;;13.00;98.23;94157.41;5038488;28;20177;-81
2021/10/21 01:34:51;;;;;;;6.73;5.30;;;;;;;13.01;98.15;94132.94;5038314;28;20717;-81
2021/10/21 01:37:16;;;;;;;6.63;5.23;;;;;;;12.98;98.44;94115.06;5055319;28;20272;-82
2021/10/21 01:39:42;;;;;;;5.63;5.07;;;;;;;12.91;98.76;94094.22;5053770;28;20260;-81
2021/10/21 01:42:07;;;;;;;5.27;4.77;;;;;;;12.95;98.66;94092.03;5038523;28;20184;-81
2021/10/21 01:44:33;;;;;;;5.83;4.60;;;;;;;12.97;98.47;94105.66;5037822;28;20184;-81
2021/10/21 01:46:58;;;;;;;6.13;4.03;;;;;;;12.97;98.63;94108.25;5055550;28;20197;-83
2021/10/21 01:49:24;;;;;;;5.23;3.87;;;;;;;12.91;98.47;94089.03;5038509;28;20664;-82
2021/10/21 01:51:50;;;;;;;3.33;2.90;;;;;;;12.94;97.35;94109.47;5055629;28;20185;-82
2021/10/21 01:54:15;;;;;;;3.90;2.97;;;;;;;12.93;97.35;94094.03;5038049;28;20183;-82
2021/10/21 01:56:41;;;;;;;3.43;2.67;;;;;;;12.91;96.68;94091.63;5038583;28;20664;-81
2021/10/21 01:59:06;;;;;;;2.77;2.57;;;;;;;12.92;96.57;94069.78;5038446;28;20286;-82
2021/10/21 02:01:31;;;;;;;2.53;2.10;;;;;;;13.07;95.14;94051.34;5038620;28;20275;-82
2021/10/21 02:03:57;;;;;;;2.47;2.07;;;;;;;13.05;94.83;94014.25;5037513;28;20223;-82
2021/10/21 02:06:24;;;;;;;2.07;1.70;;;;;;;13.02;94.27;94017.28;5054643;28;20279;-81
2021/10/21 02:08:49;;;;;;;1.90;1.80;;;;;;;13.01;94.46;94026.09;5054796;28;20231;-81
2021/10/21 02:11:14;;;;;;;2.10;1.70;;;;;;;12.94;94.85;94025.28;5038105;28;20581;-81
2021/10/21 02:13:40;;;;;;;3.20;1.90;;;;;;;12.92;95.06;94022.09;5037256;28;20189;-81
2021/10/21 02:16:05;;;;;;;2.53;1.43;;;;;;;13.00;93.42;94003.66;5038021;28;20181;-82
2021/10/21 02:18:31;;;;;;;1.40;1.30;;;;;;;13.02;93.26;94007.66;5038060;28;20245;-81
2021/10/21 02:20:56;;;;;;;1.70;1.60;;;;;;;13.16;92.14;94012.84;5054738;28;20637;-81
2021/10/21 02:23:21;;;;;;;2.03;1.70;;;;;;;13.02;92.96;94007.66;5054355;28;20192;-81
2021/10/21 02:25:47;;;;;;;2.20;1.63;;;;;;;13.12;91.92;94007.25;5037457;28;20711;-80
2021/10/21 02:28:13;;;;;;;2.13;1.60;;;;;;;13.11;91.48;94016.09;5037622;28;20839;-81
2021/10/21 02:30:38;;;;;;;1.63;1.50;;;;;;;13.18;90.79;94018.69;5054056;28;20178;-81
2021/10/21 02:33:03;;;;;;;2.27;1.60;;;;;;;13.24;90.41;94010.09;5053814;28;20191;-81
2021/10/21 02:35:29;;;;;;;2.10;1.53;;;;;;;13.30;89.37;94004.88;5053847;28;20267;-80
2021/10/21 02:37:54;;;;;;;1.50;1.40;;;;;;;13.35;88.73;94003.47;5054299;28;20590;-80
2021/10/21 02:40:20;;;;;;;1.50;1.40;;;;;;;13.35;88.36;94016.53;5035994;28;20219;-81
2021/10/21 02:42:46;;;;;;;2.17;1.20;;;;;;;13.41;87.25;94020.91;5037437;28;20181;-80
2021/10/21 02:45:11;;;;;;;3.47;1.60;;;;;;;13.36;88.60;94026.75;5036793;28;20185;-80
2021/10/21 02:47:36;;;;;;;1.97;1.77;;;;;;;13.36;89.04;94028.53;5053906;28;20683;-80
2021/10/21 02:50:02;;;;;;;2.17;1.60;;;;;;;13.29;89.10;94025.94;5037325;28;20200;-81
2021/10/21 02:52:28;;;;;;;1.77;1.60;;;;;;;13.21;89.73;94024.31;5054194;28;20268;-81
2021/10/21 02:54:53;;;;;;;1.40;1.30;;;;;;;13.21;89.83;94026.94;5053416;28;20177;-81
2021/10/21 02:57:18;;;;;;;1.40;1.30;;;;;;;13.19;90.55;94051.56;5037262;28;20212;-81
2021/10/21 02:59:43;;;;;;;1.70;1.43;;;;;;;13.13;90.79;94034.13;5054141;28;20297;-82
2021/10/21 03:02:09;;;;;;;2.17;1.40;;;;;;;13.12;90.83;94035.94;5037576;28;20190;-81
2021/10/21 03:04:34;;;;;;;1.93;1.30;;;;;;;13.20;87.07;94032.34;5036536;28;20181;-81
2021/10/21 03:06:59;;;;;;;1.10;1.00;;;;;;;13.21;84.91;94029.53;5037098;28;20244;-82
2021/10/21 03:09:25;;;;;;;4.43;1.20;;;;;;;13.24;81.00;94036.16;5036977;28;20220;-82
2021/10/21 03:11:50;;;;;;;1.17;0.90;;;;;;;13.17;81.22;94062.19;5037414;28;20188;-81
2021/10/21 03:14:15;;;;;;;1.07;0.97;;;;;;;13.11;82.35;94055.16;5036399;28;20231;-81
2021/10/21 03:16:40;;;;;;;1.57;0.90;;;;;;;13.04;82.80;94088.22;5053792;28;20173;-81
2021/10/21 03:19:06;;;;;;;1.70;1.07;;;;;;;13.07;82.09;94094.84;5053472;28;20680;-81
2021/10/21 03:21:32;;;;;;;3.20;0.90;;;;;;;12.97;82.13;94072.56;5053688;28;20738;-81
2021/10/21 03:23:58;;;;;;;1.10;1.07;;;;;;;12.93;83.14;94075.78;5052911;28;20177;-81
2021/10/21 03:26:24;;;;;;;1.60;1.00;;;;;;;12.92;82.74;94068.97;5053650;28;20207;-81
2021/10/21 03:28:50;;;;;;;1.00;0.80;;;;;;;12.85;83.55;94075.97;5037190;28;20299;-80
2021/10/21 03:31:16;;;;;;;2.00;1.07;;;;;;;12.80;77.43;94070.53;5036996;28;20265;-80
2021/10/21 03:33:41;;;;;;;2.73;0.63;;;;;;;12.80;76.05;94093.97;5053253;28;20238;-81
2021/10/21 03:36:06;;;;;;;3.00;0.87;;;;;;;12.81;74.73;94091.22;5054009;28;20173;-80
2021/10/21 03:38:32;;;;;;;1.23;0.80;;;;;;;12.70;76.21;94091.75;5035145;28;20201;-81
2021/10/21 03:40:58;;;;;;;1.53;0.90;;;;;;;12.60;76.08;94084.31;5053523;28;20723;-81
2021/10/21 03:43:23;;;;;;;2.17;1.03;;;;;;;12.53;75.72;94087.88;5038536;28;20184;-80
2021/10/21 03:45:49;;;;;;;0.83;0.70;;;;;;;12.51;77.04;94080.28;5057036;28;20185;-80
2021/10/21 03:48:15;;;;;;;3.17;0.80;;;;;;;12.41;74.43;94093.66;5057513;28;20239;-80
2021/10/21 03:50:40;;;;;;;2.13;0.80;;;;;;;12.25;71.50;94075.75;5057511;28;20264;-80
2021/10/21 03:53:09;;;;;;;3.33;0.63;;;;;;;12.24;69.38;94123.59;5057562;28;20184;-81
2021/10/21 03:55:36;;;;;;;2.67;0.80;;;;;;;12.21;66.47;94126.59;5056900;28;20793;-80
2021/10/21 03:58:01;;;;;;;0.87;0.60;;;;;;;12.13;66.85;94143.16;5057706;28;20199;-80
2021/10/21 04:00:26;;;;;;;1.03;0.63;;;;;;;12.02;65.05;94143.72;5075608;28;20180;-80
2021/10/21 04:02:52;;;;;;;3.37;0.60;;;;;;;11.88;66.00;94175.81;5040710;28;20185;-81
2021/10/21 04:05:18;;;;;;;1.87;0.60;;;;;;;11.78;64.93;94168.31;5040558;28;20204;-80
2021/10/21 04:07:43;;;;;;;3.53;0.70;;;;;;;11.66;63.56;94169.81;5058430;28;20208;-80
2021/10/21 04:10:09;;;;;;;3.47;0.77;;;;;;;11.53;63.99;94178.28;5076338;28;20640;-80
2021/10/21 04:12:35;;;;;;;4.23;0.90;;;;;;;11.51;63.41;94190.69;5041472;28;20188;-81
2021/10/21 04:15:00;;;;;;;5.57;1.37;;;;;;;11.39;62.77;94212.94;5055293;28;20268;-81
2021/10/21 04:17:25;;;;;;;1.70;0.70;;;;;;;11.34;64.15;94181.53;5040229;28;20691;-80
2021/10/21 04:19:51;;;;;;;3.57;0.90;;;;;;;11.27;64.59;94178.84;5041126;28;20688;-81
2021/10/21 04:22:16;;;;;;;2.90;0.60;;;;;;;11.12;65.46;94206.66;5059566;28;20173;-81
2021/10/21 04:24:42;;;;;;;1.10;0.40;;;;;;;11.08;63.88;94184.66;5076711;28;20642;-81
2021/10/21 04:27:07;;;;;;;2.10;0.50;;;;;;;11.05;64.93;94219.59;5076788;28;20196;-80
2021/10/21 04:29:32;;;;;;;3.23;0.70;;;;;;;11.03;64.07;94213.75;5060394;28;20184;-81
2021/10/21 04:31:58;;;;;;;5.77;0.80;;;;;;;11.03;62.90;94229.34;5077022;28;20191;-81
2021/10/21 04:34:23;;;;;;;3.77;0.87;;;;;;;11.02;63.52;94227.75;5076238;28;20716;-80
2021/10/21 04:36:50;;;;;;;3.70;0.87;;;;;;;11.00;64.25;94236.72;5060221;28;20176;-80
2021/10/21 04:39:15;;;;;;;3.53;0.70;;;;;;;10.91;63.93;94254.19;5060414;28;20207;-80
2021/10/21 04:41:40;;;;;;;4.27;1.03;;;;;;;10.86;64.02;94264.31;5059583;28;20188;-82
2021/10/21 04:44:06;;;;;;;1.40;0.77;;;;;;;10.86;64.49;94277.28;5076100;28;20184;-81
2021/10/21 04:46:31;;;;;;;4.10;0.70;;;;;;;10.77;66.15;94275.78;5076788;28;20204;-81
2021/10/21 04:48:57;;;;;;;3.63;0.80;;;;;;;10.66;66.48;94277.03;5077653;28;20197;-80
2021/10/21 04:51:23;;;;;;;3.23;0.70;;;;;;;10.72;66.88;94293.69;5060194;28;20180;-80
2021/10/21 04:53:48;;;;;;;4.70;1.07;;;;;;;10.70;66.54;94301.66;5067916;28;20198;-80
2021/10/21 04:56:14;;;;;;;3.67;1.03;;;;;;;10.66;66.66;94278.81;5072896;28;20184;-80
2021/10/21 04:58:39;;;;;;;5.73;1.00;;;;;;;10.64;67.35;94273.81;5061192;28;20678;-81
2021/10/21 05:01:05;;;;;;;6.83;0.90;;;;;;;10.60;65.15;94280.34;5076933;28;20176;-81
2021/10/21 05:03:31;;;;;;;4.53;1.17;;;;;;;10.66;65.56;94268.44;5058504;28;20238;-82
2021/10/21 05:05:57;;;;;;;6.00;1.23;;;;;;;10.63;64.72;94324.13;5075952;28;20173;-80
2021/10/21 05:08:22;;;;;;;5.27;1.20;;;;;;;10.61;64.17;94286.34;5075885;28;20208;-81
2021/10/21 05:10:47;;;;;;;7.60;1.10;;;;;;;10.55;63.97;94292.25;5056779;28;20181;-82
2021/10/21 05:13:12;;;;;;;6.23;1.40;;;;;;;10.58;64.07;94307.47;5058581;28;20666;-80
2021/10/21 05:15:40;;;;;;;4.87;1.13;;;;;;;10.53;64.44;94304.59;5076712;28;20172;-81
2021/10/21 05:18:05;;;;;;;4.20;1.20;;;;;;;10.56;63.37;94288.66;5075934;28;20595;-81
2021/10/21 05:20:31;;;;;;;4.77;1.30;;;;;;;10.61;63.81;94307.13;5057872;28;20192;-81
2021/10/21 05:22:57;;;;;;;5.23;1.30;;;;;;;10.56;64.25;94325.00;5054649;28;20238;-80
2021/10/21 05:25:22;;;;;;;8.53;1.67;;;;;;;10.56;62.48;94328.41;5061045;28;20172;-81
2021/10/21 05:27:47;;;;;;;6.50;1.60;;;;;;;10.54;63.50;94320.00;5076008;28;20205;-81
2021/10/21 05:30:12;;;;;;;5.97;1.30;;;;;;;10.61;63.35;94353.84;5058832;28;20664;-80
2021/10/21 05:32:38;;;;;;;2.50;0.93;;;;;;;10.67;62.87;94327.16;5059336;28;20184;-81
2021/10/21 05:35:04;;;;;;;4.73;1.20;;;;;;;10.67;63.18;94356.53;5058665;28;20191;-81
2021/10/21 05:37:29;;;;;;;6.37;1.80;;;;;;;10.63;62.48;94333.72;5075708;28;20184;-80
2021/10/21 05:39:55;;;;;;;4.57;1.20;;;;;;;10.59;62.20;94356.59;5058609;28;20204;-81
2021/10/21 05:42:20;;;;;;;5.13;1.10;;;;;;;10.62;61.79;94327.72;5093938;28;20168;-81
2021/10/21 05:44:46;;;;;;;12.77;1.53;;;;;;;10.60;61.19;94371.22;5057789;28;20173;-79
2021/10/21 05:47:11;;;;;;;6.57;1.03;;;;;;;10.71;60.37;94351.81;5078036;28;20638;-80
2021/10/21 05:49:36;;;;;;;7.37;1.97;;;;;;;10.71;60.06;94342.22;5060329;28;20184;-79
2021/10/21 05:52:02;;;;;;;10.30;1.63;;;;;;;10.68;59.61;94354.72;5060222;28;20188;-80
2021/10/21 05:54:27;;;;;;;8.20;1.50;;;;;;;10.72;60.15;94402.75;5076030;28;20181;-80
2021/10/21 05:56:53;;;;;;;11.00;1.17;;;;;;;10.72;60.02;94356.81;5076218;28;20708;-81
2021/10/21 05:59:18;;;;;;;3.77;1.10;;;;;;;10.69;60.37;94369.31;5087756;28;20192;-80
2021/10/21 06:01:43;;;;;;;6.40;1.30;;;;;;;10.72;60.16;94381.97;5088002;28;20199;-82
2021/10/21 06:04:08;;;;;;;8.37;1.20;;;;;;;10.73;60.04;94402.56;5081591;28;20180;-82
2021/10/21 06:06:37;;;;;;;8.20;1.30;;;;;;;10.75;59.64;94410.97;5051379;28;20580;-80
2021/10/21 06:09:05;;;;;;;5.40;1.30;;;;;;;10.69;59.54;94393.53;5060654;28;20207;-81
2021/10/21 06:11:31;;;;;;;9.17;1.63;;;;;;;10.74;58.43;94354.03;5098556;28;20993;-81
2021/10/21 06:13:58;;;;;;;11.10;1.40;;;;;;;10.71;59.23;94381.16;5059957;28;20215;-80
2021/10/21 06:16:23;;;;;;;5.17;1.17;;;;;;;10.65;59.35;94360.28;5081104;28;20655;-79
2021/10/21 06:18:49;;;;;;;6.40;1.33;;;;;;;10.62;58.72;94350.28;5061339;28;20200;-80
2021/10/21 06:21:20;;;;;;;5.90;1.33;;;;;;;10.59;58.14;94332.44;5076992;28;20184;-79
2021/10/21 06:23:46;;;;;;;3.63;1.30;;;;;;;10.60;59.34;94354.81;5060711;28;20276;-79
2021/10/21 06:26:13;;;;;;;3.63;1.27;;;;;;;10.64;58.28;94363.88;5096763;28;20262;-80
2021/10/21 06:28:38;;;;;;;11.53;1.70;;;;;;;10.67;57.55;94348.72;5064605;28;20208;-80
2021/10/21 06:31:03;;;;;;;5.23;1.20;;;;;;;10.63;58.80;94354.47;5081419;28;20191;-80
2021/10/21 06:33:29;;;;;;;2.87;0.80;;;;;;;10.61;57.92;94397.97;5065252;28;20180;-80
2021/10/21 06:35:55;;;;;;;6.33;1.47;;;;;;;10.61;58.40;94380.63;5064494;28;20173;-80
2021/10/21 06:38:20;;;;;;;6.77;1.10;;;;;;;10.62;58.30;94384.03;5062118;28;20491;-80
2021/10/21 06:40:45;;;;;;;6.60;1.10;;;;;;;10.70;58.25;94391.72;5063451;28;20544;-80
2021/10/21 06:43:11;;;;;;;9.43;1.17;;;;;;;10.72;58.07;94428.72;5064513;28;20199;-79
2021/10/21 06:45:36;;;;;;;4.27;1.20;;;;;;;10.76;56.95;94414.38;5061683;28;20180;-80
2021/10/21 06:48:02;;;;;;;3.53;1.00;;;;;;;10.89;57.56;94424.19;5076710;28;20295;-79
2021/10/21 06:50:28;;;;;;;4.57;0.90;;;;;;;10.86;58.06;94417.53;5076069;28;20176;-79
2021/10/21 06:52:53;;;;;;;5.63;0.80;;;;;;;10.89;58.45;94430.19;5058312;28;20204;-79
2021/10/21 06:55:19;;;;;;;5.33;0.90;;;;;;;10.73;58.56;94422.53;5074365;28;20173;-80
2021/10/21 06:57:56;;;;;;;2.30;0.80;;;;;;;10.73;58.75;94438.13;5074126;28;20200;-81
2021/10/21 07:00:22;;;;;;;6.67;1.10;;;;;;;10.74;58.65;94450.91;5058446;28;20176;-81
2021/10/21 07:02:47;;;;;;;3.33;0.90;;;;;;;10.80;58.36;94457.22;5074323;28;20637;-80
2021/10/21 07:05:13;;;;;;;6.70;0.80;;;;;;;10.87;57.15;94486.69;5073959;28;20195;-80
2021/10/21 07:07:39;;;;;;;3.83;0.50;;;;;;;10.96;57.67;94477.03;5074934;28;20208;-80
2021/10/21 07:10:06;;;;;;;3.60;0.80;;;;;;;11.02;57.22;94456.34;5075756;28;20176;-80
2021/10/21 07:12:33;;;;;;;11.33;0.80;;;;;;;10.80;57.43;94516.94;5075946;28;20591;-81
2021/10/21 07:14:59;;;;;;;1.80;0.80;;;;;;;10.89;57.48;94517.69;5058630;28;20199;-80
2021/10/21 07:17:24;;;;;;;3.40;0.70;;;;;;;10.94;58.46;94529.16;5057475;28;20208;-81
2021/10/21 07:19:50;;;;;;;3.20;0.73;;;;;;;10.79;57.89;94520.53;5060118;28;20183;-84
2021/10/21 07:22:16;;;;;;;3.20;0.77;;;;;;;10.92;58.39;94520.72;5064210;28;20188;-81
2021/10/21 07:24:43;;;;;;;3.53;0.50;;;;;;;11.00;58.00;94541.44;5080674;28;20187;-85
2021/10/21 07:27:08;;;;;;;3.20;0.70;;;;;;;11.01;57.25;94584.63;5059111;28;20204;-80
2021/10/21 07:29:34;;;;;;;3.77;1.00;;;;;;;10.97;57.88;94580.78;5075233;28;20181;-78
2021/10/21 07:31:59;;;;;;;2.47;1.67;;;;;;;10.88;58.86;94566.22;5075530;28;20208;-80
2021/10/21 07:34:24;;;;;;;28.37;3.13;;;;;;;10.89;58.60;94565.25;5074395;28;20219;-80
2021/10/21 07:36:50;;;;;;;7.37;0.97;;;;;;;10.80;58.94;94576.66;5058542;28;20187;-80
2021/10/21 07:39:15;;;;;;;7.47;0.97;;;;;;;10.79;59.27;94608.81;5058888;28;20200;-81
2021/10/21 07:41:42;;;;;;;3.90;0.80;;;;;;;11.03;59.02;94628.59;5058118;28;20187;-79
2021/10/21 07:44:08;;;;;;;4.00;0.80;;;;;;;11.06;58.59;94626.50;5074270;28;20250;-80
2021/10/21 07:46:34;;;;;;;2.13;0.50;;;;;;;10.83;59.13;94669.00;5073864;28;20258;-79
2021/10/21 07:49:00;;;;;;;2.30;0.60;;;;;;;10.81;59.89;94655.38;5075082;28;20246;-79
2021/10/21 07:51:30;;;;;;;1.03;0.57;;;;;;;10.73;63.82;94658.81;5058665;28;20172;-80
2021/10/21 07:53:55;;;;;;;3.23;1.10;;;;;;;10.67;65.24;94688.06;5096559;28;20176;-81
2021/10/21 07:56:21;;;;;;;2.77;0.67;;;;;;;10.75;66.09;94701.81;5082505;28;20203;-80
2021/10/21 07:58:46;;;;;;;3.10;0.70;;;;;;;10.72;67.96;94698.75;5058991;28;20208;-79
2021/10/21 08:01:11;;;;;;;5.87;0.80;;;;;;;10.42;69.76;94698.56;5058620;28;20180;-79
2021/10/21 08:03:37;;;;;;;4.33;0.80;;;;;;;10.37;70.62;94713.81;5074734;28;20187;-80
2021/10/21 08:06:02;;;;;;;2.17;1.13;;;;;;;10.25;72.02;94725.53;5057240;28;20191;-79
2021/10/21 08:08:28;;;;;;;2.50;0.77;;;;;;;10.07;72.45;94740.41;5073355;28;20216;-78
2021/10/21 08:10:53;;;;;;;4.27;0.70;;;;;;;10.25;73.93;94732.47;5058093;28;20234;-79
2021/10/21 08:13:19;;;;;;;4.80;1.03;;;;;;;10.43;74.00;94754.69;5074100;28;20195;-79
2021/10/21 08:15:44;;;;;;;3.33;0.73;;;;;;;10.26;74.69;94757.47;5056317;28;20185;-79
2021/10/21 08:18:12;;;;;;;2.60;0.60;;;;;;;10.37;74.65;94778.69;5073825;28;20208;-78
2021/10/21 08:20:37;;;;;;;1.20;0.50;;;;;;;10.33;75.05;94798.13;5057825;28;20183;-80
2021/10/21 08:23:02;;;;;;;6.20;0.70;;;;;;;10.02;76.07;94812.72;5073318;28;20173;-80
2021/10/21 08:25:28;;;;;;;3.80;0.70;;;;;;;9.41;78.77;94832.09;5056594;28;20631;-80
2021/10/21 08:27:53;;;;;;;5.33;0.97;;;;;;;9.44;80.67;94826.56;5074199;28;20200;-80
2021/10/21 08:30:23;;;;;;;1.90;0.50;;;;;;;9.28;81.53;94843.72;5061414;28;20548;-81
2021/10/21 08:32:48;;;;;;;2.33;0.60;;;;;;;9.22;81.24;94851.28;5062146;28;20263;-81
2021/10/21 08:35:14;;;;;;;2.03;0.80;;;;;;;9.12;80.72;94807.38;5078212;28;20295;-81
2021/10/21 08:37:40;;;;;;;4.33;0.70;;;;;;;9.00;79.89;94855.22;5062426;28;20283;-81
2021/10/21 08:40:06;;;;;;;3.20;1.47;;;;;;;9.14;80.99;94826.16;5078235;28;20674;-82
2021/10/21 08:42:31;;;;;;;1.97;0.67;;;;;;;8.99;81.61;94851.81;5061706;28;20184;-82
2021/10/21 08:44:57;;;;;;;4.07;2.60;;;;;;;9.11;81.76;94878.28;5077590;28;20177;-80
2021/10/21 08:47:23;;;;;;;2.50;0.63;;;;;;;9.14;81.64;94871.97;5078424;28;20207;-81
2021/10/21 08:49:49;;;;;;;2.00;0.43;;;;;;;9.11;80.84;94883.47;5055144;28;20176;-81
2021/10/21 08:52:16;;;;;;;2.53;0.60;;;;;;;9.33;80.25;94869.94;5060698;28;20518;-82
2021/10/21 08:54:41;;;;;;;1.57;0.50;;;;;;;9.27;80.26;94886.09;5076650;28;20238;-79
2021/10/21 08:57:12;;;;;;;1.30;0.50;;;;;;;9.27;79.62;94880.94;5059570;28;20170;-81
2021/10/21 08:59:39;;;;;;;1.70;0.57;;;;;;;9.30;77.23;94892.78;5075607;28;20173;-81
2021/10/21 09:08:12;;;;;;;0.73;0.30;;;;;;;8.87;76.67;94912.63;4973679;28;20223;-81
2021/10/21 09:10:52;;;;;;;1.10;0.47;;;;;;;8.98;76.43;94929.69;4966850;28;20192;-80
2021/10/21 09:13:26;;;;;;;0.30;0.30;;;;;;;9.06;77.21;94933.13;4970944;28;20290;-80
2021/10/21 09:15:55;;;;;;;1.80;0.47;;;;;;;9.29;76.96;94925.66;4989885;28;20188;-79
2021/10/21 09:18:21;;;;;;;0.30;0.30;;;;;;;9.15;77.55;94946.94;4961036;28;20227;-80
2021/10/21 09:20:47;;;;;;;0.30;0.30;;;;;;;9.11;77.37;94950.00;4973793;28;20650;-80
2021/10/21 09:23:16;;;;;;;2.53;0.30;;;;;;;8.95;77.02;94961.06;4973338;28;20185;-80
2021/10/21 09:25:43;;;;;;;3.00;0.47;;;;;;;9.02;77.01;94954.31;4956990;28;20185;-79
2021/10/21 09:28:19;;;;;;;1.63;0.50;;;;;;;9.00;75.70;94953.63;4973997;28;20255;-79
2021/10/21 09:30:56;;;;;;;1.30;0.50;;;;;;;9.07;75.42;94978.78;4987602;28;20187;-79
2021/10/21 09:33:23;;;;;;;0.90;0.60;;;;;;;9.02;75.05;94982.81;4970595;28;20207;-80
2021/10/21 09:35:58;;;;;;;0.80;0.50;;;;;;;9.09;73.47;94982.03;4973413;28;20203;-78
2021/10/21 09:38:30;;;;;;;3.27;0.67;;;;;;;9.23;73.33;94983.25;4976490;28;20204;-80
2021/10/21 09:41:03;;;;;;;2.17;0.80;;;;;;;9.29;72.22;94979.25;5005603;28;20671;-78
2021/10/21 09:43:33;;;;;;;3.83;0.70;;;;;;;9.29;71.86;94979.25;5078729;28;20301;-80
2021/10/21 09:45:59;;;;;;;2.13;0.93;;;;;;;9.32;71.63;94990.09;5077080;28;20183;-78
2021/10/21 09:48:24;;;;;;;1.47;0.63;;;;;;;9.24;70.45;94984.88;5095109;28;20196;-78
2021/10/21 09:50:50;;;;;;;1.10;0.80;;;;;;;9.15;70.05;94990.97;5079570;28;20334;-78
2021/10/21 09:53:19;;;;;;;2.63;0.73;;;;;;;9.16;71.17;95008.13;5062412;28;20181;-80
2021/10/21 09:56:05;;;;;;;1.30;0.73;;;;;;;9.31;70.96;95009.22;5078773;28;20181;-79
2021/10/21 09:58:33;;;;;;;3.90;0.53;;;;;;;9.40;70.81;95028.22;5065818;28;20192;-79
2021/10/21 10:01:12;;;;;;;3.07;0.60;;;;;;;9.28;69.76;95014.72;5076762;28;20230;-79
2021/10/21 10:03:39;;;;;;;2.43;1.27;;;;;;;9.38;70.12;95014.59;5077272;28;20200;-81
2021/10/21 10:06:05;;;;;;;2.30;0.63;;;;;;;9.49;69.73;95016.13;5075984;28;20234;-79
2021/10/21 10:08:31;;;;;;;2.77;0.87;;;;;;;9.39;66.86;95013.63;5076754;28;20216;-79
2021/10/21 10:10:59;;;;;;;3.57;0.83;;;;;;;9.54;68.17;95019.88;5059578;28;20298;-79
2021/10/21 10:13:25;;;;;;;3.77;0.90;;;;;;;9.62;67.66;95026.88;5059081;28;20226;-79
2021/10/21 10:15:51;;;;;;;2.60;0.70;;;;;;;9.63;66.91;95033.72;5075676;28;20188;-78
2021/10/21 10:18:18;;;;;;;3.80;1.20;;;;;;;9.73;66.83;95023.22;5073659;28;20227;-80
2021/10/21 10:21:02;;;;;;;2.50;0.77;;;;;;;9.82;67.38;95043.03;5059264;28;20189;-80
2021/10/21 10:23:29;;;;;;;3.07;0.80;;;;;;;9.91;66.13;95047.28;5074355;28;20184;-80
2021/10/21 10:25:54;;;;;;;3.60;0.77;;;;;;;9.94;65.94;95055.56;5075162;28;20180;-81
2021/10/21 10:28:20;;;;;;;3.53;0.80;;;;;;;10.03;65.81;95053.81;5058897;28;20551;-80
2021/10/21 10:30:49;;;;;;;2.13;0.87;;;;;;;10.15;64.97;95054.34;5075503;28;20188;-78
2021/10/21 10:33:34;;;;;;;3.43;0.90;;;;;;;10.29;65.18;95074.53;5074735;28;20248;-78
2021/10/21 10:36:27;;;;;;;2.23;0.90;;;;;;;10.33;65.36;95096.59;5073545;28;20680;-77
2021/10/21 10:39:01;;;;;;;4.53;1.00;;;;;;;10.37;64.89;95089.31;5049477;28;20209;-80
2021/10/21 10:41:41;;;;;;;4.20;0.90;;;;;;;10.57;64.60;95075.09;5075416;28;20676;-79
2021/10/21 10:44:09;;;;;;;2.50;0.67;;;;;;;10.72;64.09;95085.69;5073920;28;20191;-78
2021/10/21 10:46:53;;;;;;;2.57;0.90;;;;;;;10.61;63.64;95086.81;5074679;28;20205;-79
2021/10/21 10:49:37;;;;;;;6.10;0.93;;;;;;;10.76;62.85;95090.38;5066189;28;20275;-80
2021/10/21 10:52:13;;;;;;;6.83;0.77;;;;;;;10.82;62.74;95096.75;5073982;28;20187;-78
2021/10/21 10:54:56;;;;;;;1.37;0.73;;;;;;;10.97;62.24;95105.53;5074390;28;20207;-80
2021/10/21 10:57:25;;;;;;;3.73;1.10;;;;;;;11.10;61.94;95101.63;5075027;28;20230;-79
2021/10/21 10:59:56;;;;;;;4.90;1.20;;;;;;;10.72;60.40;95103.88;5093049;28;20263;-78
2021/10/21 11:02:25;;;;;;;2.30;1.00;;;;;;;10.84;60.54;95112.97;5058196;28;20180;-79
2021/10/21 11:04:53;;;;;;;4.57;1.77;;;;;;;10.68;57.85;95103.34;5073626;28;20627;-79
2021/10/21 11:07:22;;;;;;;8.13;0.97;;;;;;;10.72;58.90;95115.06;5090363;28;20192;-78
2021/10/21 11:09:48;;;;;;;1.43;0.70;;;;;;;10.61;58.84;95117.97;5092199;28;20199;-78
2021/10/21 11:12:18;;;;;;;2.83;0.70;;;;;;;10.61;58.54;95122.34;5074059;28;20183;-79
2021/10/21 11:14:44;;;;;;;5.60;1.27;;;;;;;10.83;58.13;95129.53;5055788;28;20649;-79
2021/10/21 11:17:12;;;;;;;1.50;0.70;;;;;;;11.00;57.28;95128.59;5073577;28;20204;-79
2021/10/21 11:19:39;;;;;;;3.00;1.07;;;;;;;11.28;58.01;95136.09;5073885;28;20176;-78
2021/10/21 11:22:05;;;;;;;5.07;1.10;;;;;;;11.50;56.35;95135.44;5091427;28;20187;-78
2021/10/21 11:24:43;;;;;;;5.53;1.07;;;;;;;11.67;55.36;95140.66;5073553;28;20267;-79
2021/10/21 11:27:08;;;;;;;4.57;1.20;;;;;;;11.53;55.63;95165.50;5090707;28;20682;-79
2021/10/21 11:29:34;;;;;;;4.37;0.90;;;;;;;11.72;56.09;95154.78;5072548;28;20192;-79
2021/10/21 11:32:02;;;;;;;4.27;1.00;;;;;;;12.00;55.24;95160.44;5042663;28;20254;-81
2021/10/21 11:34:29;;;;;;;4.43;1.10;;;;;;;11.84;54.94;95150.09;5041965;28;20181;-79
2021/10/21 11:36:54;;;;;;;6.03;2.67;;;;;;;11.76;55.24;95158.69;5070530;28;20598;-79
2021/10/21 11:39:29;;;;;;;4.03;1.07;;;;;;;11.87;53.93;95147.97;5057115;28;20230;-79